createdAt,value
2022-09-01T04:04:35.318Z,14.62
2022-09-01T04:08:47.941Z,14.62
2022-09-01T04:12:59.929Z,14.53
2022-09-01T04:17:41.138Z,14.50
2022-09-01T04:21:55.721Z,14.53
2022-09-01T04:26:14.837Z,14.59
2022-09-01T04:30:29.300Z,14.50
2022-09-01T04:34:41.583Z,14.42
2022-09-01T04:38:58.532Z,14.39
2022-09-01T04:43:11.397Z,14.47
2022-09-01T04:47:35.150Z,14.41
2022-09-01T04:51:53.667Z,14.37
2022-09-01T04:56:07.615Z,14.35
2022-09-01T05:00:24.990Z,14.27
2022-09-01T05:04:37.432Z,14.14
2022-09-01T05:08:49.832Z,14.28
2022-09-01T05:13:18.965Z,14.23
2022-09-01T05:17:30.531Z,14.27
2022-09-01T05:21:46.206Z,14.40
2022-09-01T05:25:57.790Z,14.47
2022-09-01T05:30:10.223Z,14.59
2022-09-01T05:34:29.697Z,14.65
2022-09-01T05:38:42.181Z,14.64
2022-09-01T05:42:56.086Z,14.82
2022-09-01T05:47:09.598Z,14.71
2022-09-01T05:51:45.762Z,14.81
2022-09-01T05:55:59.083Z,14.80
2022-09-01T06:00:12.330Z,15.00
2022-09-01T06:04:27.716Z,15.09
2022-09-01T06:08:49.121Z,14.99
2022-09-01T06:13:02.664Z,15.25
2022-09-01T06:17:16.646Z,15.30
2022-09-01T06:21:29.037Z,15.43
2022-09-01T06:25:42.222Z,15.43
2022-09-01T06:29:54.825Z,15.58
2022-09-01T06:34:12.021Z,17.11
2022-09-01T06:38:25.242Z,21.23
2022-09-01T06:42:37.962Z,23.61
2022-09-01T06:46:50.965Z,25.23
2022-09-01T06:51:21.354Z,25.44
2022-09-01T06:55:38.916Z,26.08
2022-09-01T06:59:52.375Z,24.24
2022-09-01T07:04:04.318Z,23.31
2022-09-01T07:08:25.352Z,22.37
2022-09-01T07:13:06.659Z,20.40
2022-09-01T07:17:22.938Z,20.29
2022-09-01T07:21:40.927Z,20.04
2022-09-01T07:26:03.548Z,19.40
2022-09-01T07:30:20.943Z,19.90
2022-09-01T07:42:31.700Z,19.62
2022-09-01T07:44:00.869Z,19.74
2022-09-01T07:49:49.231Z,19.65
2022-09-01T07:53:04.557Z,19.71
2022-09-01T07:57:17.032Z,19.46
2022-09-01T08:01:29.348Z,19.31
2022-09-01T08:05:41.486Z,19.06
2022-09-01T08:09:55.966Z,19.25
2022-09-01T08:14:13.320Z,19.55
2022-09-01T08:18:24.877Z,19.54
2022-09-01T08:22:37.978Z,19.63
2022-09-01T08:26:59.265Z,19.59
2022-09-01T08:31:13.771Z,19.38
2022-09-01T08:35:26.905Z,19.52
2022-09-01T08:39:38.993Z,19.74
2022-09-01T08:44:01.914Z,19.71
2022-09-01T08:53:16.402Z,20.10
2022-09-01T08:57:44.065Z,19.87
2022-09-01T09:02:23.127Z,20.24
2022-09-01T09:06:53.436Z,20.23
2022-09-01T09:11:06.267Z,20.51
2022-09-01T09:15:37.447Z,20.31
2022-09-01T09:19:49.221Z,19.94
2022-09-01T09:24:11.445Z,20.12
2022-09-01T09:28:23.034Z,20.49
2022-09-01T09:33:25.092Z,20.87
2022-09-01T09:37:30.774Z,20.89
2022-09-01T09:41:43.738Z,20.99
2022-09-01T09:46:32.509Z,21.14
2022-09-01T09:50:44.196Z,21.31
2022-09-01T09:55:30.009Z,21.50
2022-09-01T09:59:58.770Z,21.76
2022-09-01T10:04:32.631Z,21.95
2022-09-01T10:08:45.730Z,22.12
2022-09-01T10:12:59.023Z,22.04
2022-09-01T10:17:18.936Z,22.14
2022-09-01T10:21:35.188Z,22.31
2022-09-01T10:25:50.651Z,22.08
2022-09-01T10:30:13.450Z,22.31
2022-09-01T10:34:37.676Z,22.25
2022-09-01T10:38:53.991Z,21.89
2022-09-01T10:43:45.075Z,22.16
2022-09-01T10:48:30.429Z,22.61
2022-09-01T10:52:43.089Z,22.61
2022-09-01T10:56:56.452Z,22.61
2022-09-01T11:01:11.790Z,22.47
2022-09-01T11:05:24.903Z,22.95
2022-09-01T11:09:38.976Z,22.35
2022-09-01T11:13:54.881Z,22.74
2022-09-01T11:18:14.991Z,22.98
2022-09-01T11:22:36.268Z,22.73
2022-09-01T11:26:49.766Z,22.46
2022-09-01T11:31:01.206Z,22.64
2022-09-01T11:35:19.021Z,23.11
2022-09-01T11:39:40.946Z,22.68
2022-09-01T11:43:56.429Z,22.70
2022-09-01T11:48:11.307Z,22.85
2022-09-01T11:52:26.676Z,23.23
2022-09-01T11:56:38.268Z,23.19
2022-09-01T12:00:49.781Z,23.41
2022-09-01T12:05:03.544Z,23.41
2022-09-01T12:09:15.299Z,23.45
2022-09-01T12:13:26.858Z,23.53
2022-09-01T12:17:38.359Z,23.35
2022-09-01T12:22:04.627Z,23.70
2022-09-01T12:26:24.911Z,23.62
2022-09-01T12:30:39.507Z,23.75
2022-09-01T12:35:18.101Z,23.72
2022-09-01T12:39:35.083Z,23.91
2022-09-01T12:43:49.665Z,24.33
2022-09-01T12:48:06.979Z,24.27
2022-09-01T12:52:27.809Z,24.36
2022-09-01T12:56:39.405Z,24.47
2022-09-01T13:00:57.751Z,24.03
2022-09-01T13:05:21.545Z,23.51
2022-09-01T13:09:33.848Z,23.43
2022-09-01T13:13:46.834Z,23.62
2022-09-01T13:17:58.458Z,23.52
2022-09-01T13:22:10.327Z,23.95
2022-09-01T13:26:22.060Z,24.17
2022-09-01T13:30:34.799Z,24.17
2022-09-01T13:34:46.492Z,24.22
2022-09-01T13:38:58.090Z,23.40
2022-09-01T13:43:10.198Z,23.66
2022-09-01T13:47:29.743Z,23.75
2022-09-01T13:51:41.880Z,24.10
2022-09-01T13:55:53.866Z,24.12
2022-09-01T14:00:10.793Z,24.15
2022-09-01T14:04:22.937Z,24.33
2022-09-01T14:08:34.520Z,24.52
2022-09-01T14:12:46.540Z,24.59
2022-09-01T14:16:58.351Z,24.79
2022-09-01T14:21:15.381Z,24.75
2022-09-01T14:25:26.987Z,24.63
2022-09-01T14:33:51.638Z,24.65
2022-09-01T14:38:05.197Z,24.63
2022-09-01T14:42:16.714Z,24.66
2022-09-01T14:46:30.452Z,24.55
2022-09-01T14:50:45.106Z,24.65
2022-09-01T14:54:57.409Z,24.74
2022-09-01T14:59:10.829Z,24.77
2022-09-01T15:03:23.986Z,24.72
2022-09-01T15:07:35.821Z,24.46
2022-09-01T15:11:48.388Z,24.57
2022-09-01T15:15:59.962Z,24.89
2022-09-01T15:20:30.580Z,24.96
2022-09-01T15:24:42.658Z,24.60
2022-09-01T15:28:54.587Z,24.72
2022-09-01T15:33:11.883Z,24.72
2022-09-01T15:37:26.235Z,24.76
2022-09-01T15:41:38.402Z,24.39
2022-09-01T15:45:50.062Z,24.18
2022-09-01T15:50:06.876Z,23.91
2022-09-01T15:54:20.569Z,23.62
2022-09-01T15:58:59.491Z,23.46
2022-09-01T16:03:06.362Z,23.33
2022-09-01T16:07:17.888Z,23.25
2022-09-01T16:11:29.453Z,23.26
2022-09-01T16:15:48.684Z,23.31
2022-09-01T16:20:06.892Z,23.53
2022-09-01T16:24:18.777Z,23.71
2022-09-01T16:28:37.150Z,23.79
2022-09-01T16:32:49.463Z,23.81
2022-09-01T16:37:12.617Z,23.67
2022-09-01T16:41:45.218Z,23.59
2022-09-01T16:45:56.669Z,23.46
2022-09-01T16:50:32.997Z,23.34
2022-09-01T16:55:06.037Z,23.32
2022-09-01T16:59:24.061Z,23.14
2022-09-01T17:03:50.884Z,23.12
2022-09-01T17:08:21.676Z,23.04
2022-09-01T17:12:48.086Z,22.90
2022-09-01T17:17:09.363Z,22.79
2022-09-01T17:21:22.632Z,22.66
2022-09-01T17:25:48.604Z,22.61
2022-09-01T17:30:01.486Z,22.48
2022-09-01T17:34:26.572Z,22.35
2022-09-01T17:39:01.189Z,22.32
2022-09-01T17:43:32.303Z,22.24
2022-09-01T17:47:56.576Z,22.14
2022-09-01T17:52:34.369Z,22.00
2022-09-01T17:57:15.794Z,21.77
2022-09-01T18:01:57.246Z,21.63
2022-09-01T18:06:15.392Z,21.53
2022-09-01T18:10:33.050Z,21.26
2022-09-01T18:15:10.818Z,21.06
2022-09-01T18:19:29.383Z,20.85
2022-09-01T18:23:43.910Z,20.73
2022-09-01T18:27:55.981Z,20.65
2022-09-01T18:32:43.302Z,20.53
2022-09-01T18:37:05.047Z,20.35
2022-09-01T18:41:40.369Z,20.17
2022-09-01T18:46:31.436Z,20.09
2022-09-01T18:51:07.141Z,20.05
2022-09-01T18:55:30.024Z,19.96
2022-09-01T19:00:01.981Z,19.82
2022-09-01T19:04:39.586Z,19.78
2022-09-01T19:09:05.742Z,19.76
2022-09-01T19:14:02.844Z,19.64
2022-09-01T19:18:37.540Z,19.61
2022-09-01T19:23:22.337Z,19.53
2022-09-01T19:27:36.152Z,19.38
2022-09-01T19:32:01.946Z,19.35
2022-09-01T19:36:21.846Z,19.28
2022-09-01T19:40:37.677Z,19.16
2022-09-01T19:45:08.032Z,19.12
2022-09-01T19:49:56.979Z,18.90
2022-09-01T19:54:12.221Z,18.63
2022-09-01T19:58:42.202Z,18.63
2022-09-01T20:03:13.022Z,18.66
2022-09-01T20:07:51.241Z,18.62
2022-09-01T20:12:06.001Z,18.61
2022-09-01T20:16:42.461Z,18.40
2022-09-01T20:20:57.929Z,18.45
2022-09-01T20:25:14.727Z,18.24
2022-09-01T20:29:34.946Z,18.17
2022-09-01T20:33:55.331Z,18.04
2022-09-01T20:38:35.203Z,17.87
2022-09-01T20:42:54.897Z,17.85
2022-09-01T20:47:07.034Z,17.75
2022-09-01T20:51:28.468Z,17.76
2022-09-01T20:55:57.083Z,17.74
2022-09-01T21:00:16.939Z,17.61
2022-09-01T21:04:30.051Z,17.59
2022-09-01T21:08:52.656Z,17.32
2022-09-01T21:13:24.158Z,17.20
2022-09-01T21:17:59.010Z,17.20
2022-09-01T21:22:13.546Z,16.98
2022-09-01T21:26:25.347Z,16.88
